sensor_id;sensor_type;location;lat;lon;timestamp;P1;durP1;ratioP1;P2;durP2;ratioP2
19842;SDS011;10082;51.038;6.992;2023-01-29T00:01:53;37.50;;;33.70;;
19842;SDS011;10082;51.038;6.992;2023-01-29T00:04:20;37.57;;;33.73;;
19842;SDS011;10082;51.038;6.992;2023-01-29T00:06:48;37.80;;;33.87;;
19842;SDS011;10082;51.038;6.992;2023-01-29T00:09:15;35.77;;;32.17;;
19842;SDS011;10082;51.038;6.992;2023-01-29T00:11:43;36.27;;;32.70;;
19842;SDS011;10082;51.038;6.992;2023-01-29T00:14:10;37.13;;;33.43;;
19842;SDS011;10082;51.038;6.992;2023-01-29T00:16:37;37.10;;;33.30;;
19842;SDS011;10082;51.038;6.992;2023-01-29T00:19:05;35.70;;;32.27;;
19842;SDS011;10082;51.038;6.992;2023-01-29T00:21:32;36.27;;;32.60;;
19842;SDS011;10082;51.038;6.992;2023-01-29T00:23:59;35.07;;;31.40;;
19842;SDS011;10082;51.038;6.992;2023-01-29T00:26:27;34.10;;;30.80;;
19842;SDS011;10082;51.038;6.992;2023-01-29T00:28:55;34.37;;;31.07;;
19842;SDS011;10082;51.038;6.992;2023-01-29T00:31:24;36.40;;;32.57;;
19842;SDS011;10082;51.038;6.992;2023-01-29T00:33:52;34.70;;;31.30;;
19842;SDS011;10082;51.038;6.992;2023-01-29T00:36:19;36.63;;;32.80;;
19842;SDS011;10082;51.038;6.992;2023-01-29T00:38:47;36.07;;;32.37;;
19842;SDS011;10082;51.038;6.992;2023-01-29T00:41:24;34.03;;;30.63;;
19842;SDS011;10082;51.038;6.992;2023-01-29T00:44:12;34.20;;;30.80;;
19842;SDS011;10082;51.038;6.992;2023-01-29T00:46:56;36.23;;;32.57;;
19842;SDS011;10082;51.038;6.992;2023-01-29T00:49:25;35.50;;;31.90;;
19842;SDS011;10082;51.038;6.992;2023-01-29T00:51:52;37.67;;;33.77;;
19842;SDS011;10082;51.038;6.992;2023-01-29T00:54:36;37.13;;;33.37;;
19842;SDS011;10082;51.038;6.992;2023-01-29T00:57:03;35.73;;;32.23;;
19842;SDS011;10082;51.038;6.992;2023-01-29T00:59:32;37.67;;;33.77;;
19842;SDS011;10082;51.038;6.992;2023-01-29T01:01:59;36.87;;;33.03;;
19842;SDS011;10082;51.038;6.992;2023-01-29T01:04:43;38.33;;;34.43;;
19842;SDS011;10082;51.038;6.992;2023-01-29T01:07:10;37.57;;;33.73;;
19842;SDS011;10082;51.038;6.992;2023-01-29T01:09:37;36.73;;;33.03;;
19842;SDS011;10082;51.038;6.992;2023-01-29T01:12:22;36.67;;;33.00;;
19842;SDS011;10082;51.038;6.992;2023-01-29T01:14:50;37.87;;;33.87;;
19842;SDS011;10082;51.038;6.992;2023-01-29T01:17:17;37.40;;;33.60;;
19842;SDS011;10082;51.038;6.992;2023-01-29T01:19:44;37.13;;;33.23;;
19842;SDS011;10082;51.038;6.992;2023-01-29T01:22:12;36.10;;;32.37;;
19842;SDS011;10082;51.038;6.992;2023-01-29T01:24:39;36.60;;;32.90;;
19842;SDS011;10082;51.038;6.992;2023-01-29T01:27:06;38.27;;;34.17;;
19842;SDS011;10082;51.038;6.992;2023-01-29T01:29:33;36.57;;;32.77;;
19842;SDS011;10082;51.038;6.992;2023-01-29T01:32:02;36.67;;;32.77;;
19842;SDS011;10082;51.038;6.992;2023-01-29T01:34:29;35.00;;;31.40;;
19842;SDS011;10082;51.038;6.992;2023-01-29T01:36:56;35.40;;;31.77;;
19842;SDS011;10082;51.038;6.992;2023-01-29T01:39:23;33.97;;;30.57;;
19842;SDS011;10082;51.038;6.992;2023-01-29T01:41:51;37.43;;;33.53;;
19842;SDS011;10082;51.038;6.992;2023-01-29T01:47:20;36.10;;;32.27;;
19842;SDS011;10082;51.038;6.992;2023-01-29T01:49:52;37.20;;;33.20;;
19842;SDS011;10082;51.038;6.992;2023-01-29T01:52:21;36.30;;;32.60;;
19842;SDS011;10082;51.038;6.992;2023-01-29T01:54:48;34.70;;;31.27;;
19842;SDS011;10082;51.038;6.992;2023-01-29T01:57:17;36.00;;;32.40;;
19842;SDS011;10082;51.038;6.992;2023-01-29T01:59:51;37.80;;;33.80;;
19842;SDS011;10082;51.038;6.992;2023-01-29T02:02:23;35.73;;;32.20;;
19842;SDS011;10082;51.038;6.992;2023-01-29T02:05:09;35.40;;;31.73;;
19842;SDS011;10082;51.038;6.992;2023-01-29T02:07:55;34.60;;;31.13;;
19842;SDS011;10082;51.038;6.992;2023-01-29T02:10:41;35.57;;;31.87;;
19842;SDS011;10082;51.038;6.992;2023-01-29T02:13:10;38.00;;;34.00;;
19842;SDS011;10082;51.038;6.992;2023-01-29T02:15:40;37.07;;;33.27;;
19842;SDS011;10082;51.038;6.992;2023-01-29T02:18:14;35.87;;;32.17;;
19842;SDS011;10082;51.038;6.992;2023-01-29T02:20:43;35.30;;;31.80;;
19842;SDS011;10082;51.038;6.992;2023-01-29T02:23:41;33.90;;;30.43;;
19842;SDS011;10082;51.038;6.992;2023-01-29T02:26:38;37.97;;;33.93;;
19842;SDS011;10082;51.038;6.992;2023-01-29T02:29:13;39.30;;;34.37;;
19842;SDS011;10082;51.038;6.992;2023-01-29T02:31:56;38.53;;;34.53;;
19842;SDS011;10082;51.038;6.992;2023-01-29T02:34:35;39.40;;;34.87;;
19842;SDS011;10082;51.038;6.992;2023-01-29T02:37:24;38.03;;;33.97;;
19842;SDS011;10082;51.038;6.992;2023-01-29T02:40:04;39.27;;;35.00;;
19842;SDS011;10082;51.038;6.992;2023-01-29T02:42:39;39.07;;;34.97;;
19842;SDS011;10082;51.038;6.992;2023-01-29T02:45:14;38.60;;;34.50;;
19842;SDS011;10082;51.038;6.992;2023-01-29T02:47:46;37.93;;;33.83;;
19842;SDS011;10082;51.038;6.992;2023-01-29T02:50:20;38.93;;;34.80;;
19842;SDS011;10082;51.038;6.992;2023-01-29T02:52:53;37.57;;;33.67;;
19842;SDS011;10082;51.038;6.992;2023-01-29T02:55:28;37.77;;;33.77;;
19842;SDS011;10082;51.038;6.992;2023-01-29T02:58:06;37.10;;;33.13;;
19842;SDS011;10082;51.038;6.992;2023-01-29T03:00:40;36.00;;;32.17;;
19842;SDS011;10082;51.038;6.992;2023-01-29T03:03:11;35.83;;;32.13;;
19842;SDS011;10082;51.038;6.992;2023-01-29T03:05:45;35.53;;;31.90;;
19842;SDS011;10082;51.038;6.992;2023-01-29T03:08:20;37.80;;;34.03;;
19842;SDS011;10082;51.038;6.992;2023-01-29T03:11:02;40.20;;;35.90;;
19842;SDS011;10082;51.038;6.992;2023-01-29T03:13:34;39.33;;;35.23;;
19842;SDS011;10082;51.038;6.992;2023-01-29T03:16:08;39.60;;;35.37;;
19842;SDS011;10082;51.038;6.992;2023-01-29T03:18:45;36.93;;;33.03;;
19842;SDS011;10082;51.038;6.992;2023-01-29T03:21:22;37.33;;;33.60;;
19842;SDS011;10082;51.038;6.992;2023-01-29T03:24:12;36.40;;;32.60;;
19842;SDS011;10082;51.038;6.992;2023-01-29T03:27:03;37.07;;;33.30;;
19842;SDS011;10082;51.038;6.992;2023-01-29T03:29:53;37.43;;;33.47;;
19842;SDS011;10082;51.038;6.992;2023-01-29T03:32:53;38.43;;;34.43;;
19842;SDS011;10082;51.038;6.992;2023-01-29T03:35:27;38.90;;;34.90;;
19842;SDS011;10082;51.038;6.992;2023-01-29T03:37:59;37.80;;;33.90;;
19842;SDS011;10082;51.038;6.992;2023-01-29T03:40:28;38.93;;;34.70;;
19842;SDS011;10082;51.038;6.992;2023-01-29T03:43:04;38.10;;;34.13;;
19842;SDS011;10082;51.038;6.992;2023-01-29T03:45:38;36.77;;;32.90;;
19842;SDS011;10082;51.038;6.992;2023-01-29T03:48:12;37.87;;;33.97;;
19842;SDS011;10082;51.038;6.992;2023-01-29T03:50:51;37.93;;;33.93;;
19842;SDS011;10082;51.038;6.992;2023-01-29T03:53:24;38.87;;;34.77;;
19842;SDS011;10082;51.038;6.992;2023-01-29T03:55:57;37.77;;;33.80;;
19842;SDS011;10082;51.038;6.992;2023-01-29T03:58:31;35.57;;;31.87;;
19842;SDS011;10082;51.038;6.992;2023-01-29T04:01:05;38.07;;;34.17;;
19842;SDS011;10082;51.038;6.992;2023-01-29T04:03:42;41.27;;;35.67;;
19842;SDS011;10082;51.038;6.992;2023-01-29T04:06:16;39.13;;;34.77;;
19842;SDS011;10082;51.038;6.992;2023-01-29T04:09:02;42.97;;;35.50;;
19842;SDS011;10082;51.038;6.992;2023-01-29T04:11:35;38.07;;;33.97;;
19842;SDS011;10082;51.038;6.992;2023-01-29T04:14:07;39.93;;;35.47;;
19842;SDS011;10082;51.038;6.992;2023-01-29T04:16:37;39.20;;;34.80;;
19842;SDS011;10082;51.038;6.992;2023-01-29T04:19:26;39.43;;;35.00;;
19842;SDS011;10082;51.038;6.992;2023-01-29T04:21:59;40.37;;;35.57;;
19842;SDS011;10082;51.038;6.992;2023-01-29T04:24:31;39.90;;;35.60;;
19842;SDS011;10082;51.038;6.992;2023-01-29T04:27:02;38.37;;;34.33;;
19842;SDS011;10082;51.038;6.992;2023-01-29T04:29:47;40.13;;;35.30;;
19842;SDS011;10082;51.038;6.992;2023-01-29T04:32:27;38.53;;;34.47;;
19842;SDS011;10082;51.038;6.992;2023-01-29T04:35:00;37.30;;;33.33;;
19842;SDS011;10082;51.038;6.992;2023-01-29T04:37:38;43.03;;;36.63;;
19842;SDS011;10082;51.038;6.992;2023-01-29T04:40:13;38.47;;;34.37;;
19842;SDS011;10082;51.038;6.992;2023-01-29T04:42:47;42.57;;;36.47;;
19842;SDS011;10082;51.038;6.992;2023-01-29T04:45:24;39.83;;;35.50;;
19842;SDS011;10082;51.038;6.992;2023-01-29T04:48:03;42.23;;;37.63;;
19842;SDS011;10082;51.038;6.992;2023-01-29T04:50:43;41.27;;;36.77;;
19842;SDS011;10082;51.038;6.992;2023-01-29T04:53:16;40.63;;;36.23;;
19842;SDS011;10082;51.038;6.992;2023-01-29T04:55:49;41.13;;;36.73;;
19842;SDS011;10082;51.038;6.992;2023-01-29T04:58:24;40.73;;;35.90;;
19842;SDS011;10082;51.038;6.992;2023-01-29T05:00:56;40.07;;;35.67;;
19842;SDS011;10082;51.038;6.992;2023-01-29T05:03:25;38.13;;;34.13;;
19842;SDS011;10082;51.038;6.992;2023-01-29T05:05:56;37.63;;;33.63;;
19842;SDS011;10082;51.038;6.992;2023-01-29T05:08:26;39.80;;;35.60;;
19842;SDS011;10082;51.038;6.992;2023-01-29T05:10:56;39.87;;;35.57;;
19842;SDS011;10082;51.038;6.992;2023-01-29T05:13:24;41.20;;;36.23;;
19842;SDS011;10082;51.038;6.992;2023-01-29T05:15:55;39.13;;;35.10;;
19842;SDS011;10082;51.038;6.992;2023-01-29T05:18:27;40.20;;;35.90;;
19842;SDS011;10082;51.038;6.992;2023-01-29T05:20:56;39.63;;;35.43;;
19842;SDS011;10082;51.038;6.992;2023-01-29T05:23:28;39.90;;;35.70;;
19842;SDS011;10082;51.038;6.992;2023-01-29T05:25:55;40.67;;;36.30;;
19842;SDS011;10082;51.038;6.992;2023-01-29T05:28:23;40.23;;;36.00;;
19842;SDS011;10082;51.038;6.992;2023-01-29T05:30:49;38.50;;;34.50;;
19842;SDS011;10082;51.038;6.992;2023-01-29T05:33:18;39.27;;;35.10;;
19842;SDS011;10082;51.038;6.992;2023-01-29T05:35:46;39.37;;;35.13;;
19842;SDS011;10082;51.038;6.992;2023-01-29T05:38:15;40.70;;;36.37;;
19842;SDS011;10082;51.038;6.992;2023-01-29T05:40:43;39.93;;;35.63;;
19842;SDS011;10082;51.038;6.992;2023-01-29T05:43:14;40.10;;;35.90;;
19842;SDS011;10082;51.038;6.992;2023-01-29T05:45:42;39.63;;;35.50;;
19842;SDS011;10082;51.038;6.992;2023-01-29T05:48:09;37.57;;;33.70;;
19842;SDS011;10082;51.038;6.992;2023-01-29T05:50:36;38.23;;;34.27;;
19842;SDS011;10082;51.038;6.992;2023-01-29T05:53:03;38.70;;;34.63;;
19842;SDS011;10082;51.038;6.992;2023-01-29T05:55:32;38.27;;;34.23;;
19842;SDS011;10082;51.038;6.992;2023-01-29T05:57:59;37.53;;;33.70;;
19842;SDS011;10082;51.038;6.992;2023-01-29T06:00:26;39.23;;;35.13;;
19842;SDS011;10082;51.038;6.992;2023-01-29T06:02:54;38.60;;;34.70;;
19842;SDS011;10082;51.038;6.992;2023-01-29T06:05:21;39.30;;;35.30;;
19842;SDS011;10082;51.038;6.992;2023-01-29T06:07:48;38.53;;;34.57;;
19842;SDS011;10082;51.038;6.992;2023-01-29T06:10:16;37.77;;;33.73;;
19842;SDS011;10082;51.038;6.992;2023-01-29T06:12:45;39.07;;;35.10;;
19842;SDS011;10082;51.038;6.992;2023-01-29T06:15:13;36.87;;;33.07;;
19842;SDS011;10082;51.038;6.992;2023-01-29T06:17:40;38.77;;;34.70;;
19842;SDS011;10082;51.038;6.992;2023-01-29T06:20:10;35.90;;;32.30;;
19842;SDS011;10082;51.038;6.992;2023-01-29T06:22:37;37.67;;;33.77;;
19842;SDS011;10082;51.038;6.992;2023-01-29T06:25:05;37.27;;;33.47;;
19842;SDS011;10082;51.038;6.992;2023-01-29T06:27:33;37.60;;;33.60;;
19842;SDS011;10082;51.038;6.992;2023-01-29T06:30:01;37.70;;;33.80;;
19842;SDS011;10082;51.038;6.992;2023-01-29T06:32:28;39.03;;;34.93;;
19842;SDS011;10082;51.038;6.992;2023-01-29T06:34:55;38.03;;;34.17;;
19842;SDS011;10082;51.038;6.992;2023-01-29T06:37:22;40.13;;;35.93;;
19842;SDS011;10082;51.038;6.992;2023-01-29T06:39:49;38.83;;;34.77;;
19842;SDS011;10082;51.038;6.992;2023-01-29T06:42:19;39.23;;;35.07;;
19842;SDS011;10082;51.038;6.992;2023-01-29T06:44:51;39.43;;;35.23;;
19842;SDS011;10082;51.038;6.992;2023-01-29T06:47:20;38.80;;;34.70;;
19842;SDS011;10082;51.038;6.992;2023-01-29T06:49:47;40.23;;;35.93;;
19842;SDS011;10082;51.038;6.992;2023-01-29T06:52:14;41.33;;;37.03;;
19842;SDS011;10082;51.038;6.992;2023-01-29T06:54:42;38.53;;;34.63;;
19842;SDS011;10082;51.038;6.992;2023-01-29T06:57:09;38.47;;;34.37;;
19842;SDS011;10082;51.038;6.992;2023-01-29T06:59:36;37.10;;;33.33;;
19842;SDS011;10082;51.038;6.992;2023-01-29T07:02:03;39.17;;;35.00;;
19842;SDS011;10082;51.038;6.992;2023-01-29T07:04:31;38.57;;;34.63;;
19842;SDS011;10082;51.038;6.992;2023-01-29T07:06:59;37.77;;;33.90;;
19842;SDS011;10082;51.038;6.992;2023-01-29T07:09:26;38.87;;;34.77;;
19842;SDS011;10082;51.038;6.992;2023-01-29T07:11:53;38.73;;;34.73;;
19842;SDS011;10082;51.038;6.992;2023-01-29T07:14:20;39.10;;;35.10;;
19842;SDS011;10082;51.038;6.992;2023-01-29T07:16:48;38.60;;;34.40;;
19842;SDS011;10082;51.038;6.992;2023-01-29T07:19:15;40.13;;;35.93;;
19842;SDS011;10082;51.038;6.992;2023-01-29T07:21:47;39.63;;;35.63;;
19842;SDS011;10082;51.038;6.992;2023-01-29T07:24:14;39.80;;;35.70;;
19842;SDS011;10082;51.038;6.992;2023-01-29T07:26:41;39.07;;;35.17;;
19842;SDS011;10082;51.038;6.992;2023-01-29T07:29:08;39.17;;;35.20;;
19842;SDS011;10082;51.038;6.992;2023-01-29T07:31:35;37.07;;;33.27;;
19842;SDS011;10082;51.038;6.992;2023-01-29T07:34:02;36.70;;;33.07;;
19842;SDS011;10082;51.038;6.992;2023-01-29T07:36:29;35.47;;;32.07;;
19842;SDS011;10082;51.038;6.992;2023-01-29T07:38:58;35.50;;;31.97;;
19842;SDS011;10082;51.038;6.992;2023-01-29T07:41:24;35.93;;;32.27;;
19842;SDS011;10082;51.038;6.992;2023-01-29T07:43:51;36.87;;;33.13;;
19842;SDS011;10082;51.038;6.992;2023-01-29T07:46:18;35.67;;;32.20;;
19842;SDS011;10082;51.038;6.992;2023-01-29T07:48:45;36.43;;;32.87;;
19842;SDS011;10082;51.038;6.992;2023-01-29T07:51:18;35.57;;;31.97;;
19842;SDS011;10082;51.038;6.992;2023-01-29T07:53:45;34.97;;;31.60;;
19842;SDS011;10082;51.038;6.992;2023-01-29T07:56:14;34.33;;;30.93;;
19842;SDS011;10082;51.038;6.992;2023-01-29T07:58:41;33.83;;;30.53;;
19842;SDS011;10082;51.038;6.992;2023-01-29T08:01:08;32.93;;;29.73;;
19842;SDS011;10082;51.038;6.992;2023-01-29T08:03:35;33.70;;;30.43;;
19842;SDS011;10082;51.038;6.992;2023-01-29T08:06:02;34.93;;;31.53;;
19842;SDS011;10082;51.038;6.992;2023-01-29T08:08:30;34.83;;;31.43;;
19842;SDS011;10082;51.038;6.992;2023-01-29T08:10:59;34.07;;;30.63;;
19842;SDS011;10082;51.038;6.992;2023-01-29T08:13:28;33.17;;;29.87;;
19842;SDS011;10082;51.038;6.992;2023-01-29T08:15:57;32.93;;;29.53;;
19842;SDS011;10082;51.038;6.992;2023-01-29T08:18:25;33.67;;;30.40;;
19842;SDS011;10082;51.038;6.992;2023-01-29T08:20:52;33.73;;;30.43;;
19842;SDS011;10082;51.038;6.992;2023-01-29T08:23:24;33.77;;;30.47;;
19842;SDS011;10082;51.038;6.992;2023-01-29T08:25:51;32.03;;;28.87;;
19842;SDS011;10082;51.038;6.992;2023-01-29T08:28:18;33.37;;;30.03;;
19842;SDS011;10082;51.038;6.992;2023-01-29T08:30:47;34.20;;;30.80;;
19842;SDS011;10082;51.038;6.992;2023-01-29T08:33:14;33.70;;;30.20;;
19842;SDS011;10082;51.038;6.992;2023-01-29T08:35:41;34.83;;;31.47;;
19842;SDS011;10082;51.038;6.992;2023-01-29T08:38:09;33.33;;;30.03;;
19842;SDS011;10082;51.038;6.992;2023-01-29T08:40:36;33.80;;;30.50;;
19842;SDS011;10082;51.038;6.992;2023-01-29T08:43:03;33.77;;;30.37;;
19842;SDS011;10082;51.038;6.992;2023-01-29T08:45:32;32.27;;;29.10;;
19842;SDS011;10082;51.038;6.992;2023-01-29T08:48:03;33.17;;;29.90;;
19842;SDS011;10082;51.038;6.992;2023-01-29T08:50:30;32.73;;;29.53;;
19842;SDS011;10082;51.038;6.992;2023-01-29T08:52:59;32.57;;;29.27;;
19842;SDS011;10082;51.038;6.992;2023-01-29T08:55:27;32.47;;;29.23;;
19842;SDS011;10082;51.038;6.992;2023-01-29T08:57:54;32.93;;;29.73;;
19842;SDS011;10082;51.038;6.992;2023-01-29T09:00:22;33.40;;;30.10;;
19842;SDS011;10082;51.038;6.992;2023-01-29T09:02:49;33.33;;;30.03;;
19842;SDS011;10082;51.038;6.992;2023-01-29T09:05:18;34.43;;;30.97;;
19842;SDS011;10082;51.038;6.992;2023-01-29T09:07:45;34.23;;;30.93;;
19842;SDS011;10082;51.038;6.992;2023-01-29T09:10:12;33.50;;;30.10;;
19842;SDS011;10082;51.038;6.992;2023-01-29T09:12:39;33.27;;;30.10;;
19842;SDS011;10082;51.038;6.992;2023-01-29T09:15:06;33.80;;;30.40;;
19842;SDS011;10082;51.038;6.992;2023-01-29T09:17:34;34.10;;;30.80;;
19842;SDS011;10082;51.038;6.992;2023-01-29T09:20:01;32.57;;;29.47;;
19842;SDS011;10082;51.038;6.992;2023-01-29T09:22:34;33.57;;;30.27;;
19842;SDS011;10082;51.038;6.992;2023-01-29T09:25:02;32.67;;;29.53;;
19842;SDS011;10082;51.038;6.992;2023-01-29T09:27:30;33.67;;;30.43;;
19842;SDS011;10082;51.038;6.992;2023-01-29T09:29:57;32.30;;;29.20;;
19842;SDS011;10082;51.038;6.992;2023-01-29T09:32:24;33.77;;;30.47;;
19842;SDS011;10082;51.038;6.992;2023-01-29T09:34:54;33.60;;;30.30;;
19842;SDS011;10082;51.038;6.992;2023-01-29T09:37:21;33.53;;;30.33;;
19842;SDS011;10082;51.038;6.992;2023-01-29T09:39:50;34.10;;;30.80;;
19842;SDS011;10082;51.038;6.992;2023-01-29T09:42:17;33.30;;;30.17;;
19842;SDS011;10082;51.038;6.992;2023-01-29T09:44:52;33.37;;;30.07;;
19842;SDS011;10082;51.038;6.992;2023-01-29T09:47:28;34.23;;;30.90;;
19842;SDS011;10082;51.038;6.992;2023-01-29T09:49:57;34.57;;;31.23;;
19842;SDS011;10082;51.038;6.992;2023-01-29T09:52:29;32.03;;;28.83;;
19842;SDS011;10082;51.038;6.992;2023-01-29T09:55:04;32.20;;;29.00;;
19842;SDS011;10082;51.038;6.992;2023-01-29T09:57:38;32.23;;;29.03;;
19842;SDS011;10082;51.038;6.992;2023-01-29T10:00:12;33.60;;;30.20;;
19842;SDS011;10082;51.038;6.992;2023-01-29T10:02:50;34.67;;;31.37;;
19842;SDS011;10082;51.038;6.992;2023-01-29T10:05:39;33.33;;;30.00;;
19842;SDS011;10082;51.038;6.992;2023-01-29T10:08:34;33.00;;;29.80;;
19842;SDS011;10082;51.038;6.992;2023-01-29T10:11:16;32.67;;;29.27;;
19842;SDS011;10082;51.038;6.992;2023-01-29T10:13:51;32.80;;;29.50;;
19842;SDS011;10082;51.038;6.992;2023-01-29T10:16:31;32.67;;;29.47;;
19842;SDS011;10082;51.038;6.992;2023-01-29T10:19:10;33.20;;;29.80;;
19842;SDS011;10082;51.038;6.992;2023-01-29T10:21:51;32.10;;;28.90;;
19842;SDS011;10082;51.038;6.992;2023-01-29T10:24:33;32.57;;;29.27;;
19842;SDS011;10082;51.038;6.992;2023-01-29T10:27:10;32.30;;;28.90;;
19842;SDS011;10082;51.038;6.992;2023-01-29T10:29:39;31.37;;;28.13;;
19842;SDS011;10082;51.038;6.992;2023-01-29T10:32:08;32.47;;;29.17;;
19842;SDS011;10082;51.038;6.992;2023-01-29T10:34:41;32.70;;;29.27;;
19842;SDS011;10082;51.038;6.992;2023-01-29T10:37:13;32.77;;;29.47;;
19842;SDS011;10082;51.038;6.992;2023-01-29T10:39:42;32.63;;;29.33;;
19842;SDS011;10082;51.038;6.992;2023-01-29T10:42:19;30.57;;;27.37;;
19842;SDS011;10082;51.038;6.992;2023-01-29T10:44:58;32.57;;;29.07;;
19842;SDS011;10082;51.038;6.992;2023-01-29T10:47:39;32.10;;;28.63;;
19842;SDS011;10082;51.038;6.992;2023-01-29T10:50:30;30.47;;;27.33;;
19842;SDS011;10082;51.038;6.992;2023-01-29T10:53:15;29.23;;;26.13;;
19842;SDS011;10082;51.038;6.992;2023-01-29T10:55:53;29.13;;;26.13;;
19842;SDS011;10082;51.038;6.992;2023-01-29T10:58:31;28.53;;;25.37;;
19842;SDS011;10082;51.038;6.992;2023-01-29T11:01:01;27.87;;;24.80;;
19842;SDS011;10082;51.038;6.992;2023-01-29T11:03:29;28.17;;;24.27;;
19842;SDS011;10082;51.038;6.992;2023-01-29T11:06:00;26.63;;;23.70;;
19842;SDS011;10082;51.038;6.992;2023-01-29T11:08:36;27.43;;;24.50;;
19842;SDS011;10082;51.038;6.992;2023-01-29T11:11:11;25.40;;;22.47;;
19842;SDS011;10082;51.038;6.992;2023-01-29T11:13:43;26.00;;;23.20;;
19842;SDS011;10082;51.038;6.992;2023-01-29T11:16:13;27.03;;;23.83;;
19842;SDS011;10082;51.038;6.992;2023-01-29T11:18:53;27.97;;;23.03;;
19842;SDS011;10082;51.038;6.992;2023-01-29T11:21:22;27.27;;;22.60;;
19842;SDS011;10082;51.038;6.992;2023-01-29T11:23:50;26.27;;;23.00;;
19842;SDS011;10082;51.038;6.992;2023-01-29T11:26:32;26.73;;;23.37;;
19842;SDS011;10082;51.038;6.992;2023-01-29T11:29:02;27.83;;;24.23;;
19842;SDS011;10082;51.038;6.992;2023-01-29T11:31:34;27.50;;;23.30;;
19842;SDS011;10082;51.038;6.992;2023-01-29T11:34:04;29.03;;;24.47;;
19842;SDS011;10082;51.038;6.992;2023-01-29T11:36:38;28.00;;;25.03;;
19842;SDS011;10082;51.038;6.992;2023-01-29T11:39:17;28.33;;;23.80;;
19842;SDS011;10082;51.038;6.992;2023-01-29T11:41:49;29.40;;;24.63;;
19842;SDS011;10082;51.038;6.992;2023-01-29T11:44:26;26.47;;;23.57;;
19842;SDS011;10082;51.038;6.992;2023-01-29T11:46:54;26.33;;;23.43;;
19842;SDS011;10082;51.038;6.992;2023-01-29T11:49:30;27.43;;;24.43;;
19842;SDS011;10082;51.038;6.992;2023-01-29T11:52:00;27.60;;;24.17;;
19842;SDS011;10082;51.038;6.992;2023-01-29T11:54:30;29.83;;;23.97;;
19842;SDS011;10082;51.038;6.992;2023-01-29T11:57:02;29.23;;;24.13;;
19842;SDS011;10082;51.038;6.992;2023-01-29T12:02:54;28.57;;;24.63;;
19842;SDS011;10082;51.038;6.992;2023-01-29T12:05:27;27.57;;;23.97;;
19842;SDS011;10082;51.038;6.992;2023-01-29T12:07:55;30.00;;;25.30;;
19842;SDS011;10082;51.038;6.992;2023-01-29T12:10:31;30.20;;;24.07;;
19842;SDS011;10082;51.038;6.992;2023-01-29T12:13:03;28.40;;;24.23;;
19842;SDS011;10082;51.038;6.992;2023-01-29T12:15:31;28.57;;;23.97;;
19842;SDS011;10082;51.038;6.992;2023-01-29T12:18:02;26.60;;;23.40;;
19842;SDS011;10082;51.038;6.992;2023-01-29T12:20:34;27.47;;;23.93;;
19842;SDS011;10082;51.038;6.992;2023-01-29T12:23:10;27.67;;;23.73;;
19842;SDS011;10082;51.038;6.992;2023-01-29T12:25:50;27.07;;;23.60;;
19842;SDS011;10082;51.038;6.992;2023-01-29T12:28:30;27.73;;;23.37;;
19842;SDS011;10082;51.038;6.992;2023-01-29T12:31:07;28.50;;;23.60;;
19842;SDS011;10082;51.038;6.992;2023-01-29T12:33:47;26.70;;;21.93;;
19842;SDS011;10082;51.038;6.992;2023-01-29T12:36:20;27.03;;;23.17;;
19842;SDS011;10082;51.038;6.992;2023-01-29T12:38:52;27.60;;;23.00;;
19842;SDS011;10082;51.038;6.992;2023-01-29T12:41:24;25.53;;;22.67;;
19842;SDS011;10082;51.038;6.992;2023-01-29T12:43:56;27.63;;;22.00;;
19842;SDS011;10082;51.038;6.992;2023-01-29T12:46:27;25.10;;;22.20;;
19842;SDS011;10082;51.038;6.992;2023-01-29T12:49:00;26.97;;;23.10;;
19842;SDS011;10082;51.038;6.992;2023-01-29T12:51:30;28.27;;;22.00;;
19842;SDS011;10082;51.038;6.992;2023-01-29T12:54:02;27.10;;;22.93;;
19842;SDS011;10082;51.038;6.992;2023-01-29T12:56:33;26.67;;;22.67;;
19842;SDS011;10082;51.038;6.992;2023-01-29T12:59:04;26.37;;;22.27;;
19842;SDS011;10082;51.038;6.992;2023-01-29T13:01:41;27.03;;;22.87;;
19842;SDS011;10082;51.038;6.992;2023-01-29T13:04:15;28.03;;;22.90;;
19842;SDS011;10082;51.038;6.992;2023-01-29T13:06:52;26.83;;;22.73;;
19842;SDS011;10082;51.038;6.992;2023-01-29T13:09:24;25.27;;;21.60;;
19842;SDS011;10082;51.038;6.992;2023-01-29T13:11:55;25.47;;;21.43;;
19842;SDS011;10082;51.038;6.992;2023-01-29T13:14:30;25.60;;;22.07;;
19842;SDS011;10082;51.038;6.992;2023-01-29T13:17:08;25.23;;;21.50;;
19842;SDS011;10082;51.038;6.992;2023-01-29T13:19:41;26.43;;;22.67;;
19842;SDS011;10082;51.038;6.992;2023-01-29T13:22:14;26.20;;;22.63;;
19842;SDS011;10082;51.038;6.992;2023-01-29T13:24:45;25.23;;;22.40;;
19842;SDS011;10082;51.038;6.992;2023-01-29T13:27:20;26.03;;;21.53;;
19842;SDS011;10082;51.038;6.992;2023-01-29T13:29:50;27.80;;;22.07;;
19842;SDS011;10082;51.038;6.992;2023-01-29T13:32:19;23.77;;;21.00;;
19842;SDS011;10082;51.038;6.992;2023-01-29T13:34:51;24.67;;;21.97;;
19842;SDS011;10082;51.038;6.992;2023-01-29T13:37:24;24.60;;;21.90;;
19842;SDS011;10082;51.038;6.992;2023-01-29T13:39:55;24.80;;;21.17;;
19842;SDS011;10082;51.038;6.992;2023-01-29T13:42:24;24.63;;;21.07;;
19842;SDS011;10082;51.038;6.992;2023-01-29T13:45:02;26.77;;;21.57;;
19842;SDS011;10082;51.038;6.992;2023-01-29T13:47:32;25.00;;;21.03;;
19842;SDS011;10082;51.038;6.992;2023-01-29T13:50:04;25.33;;;22.63;;
19842;SDS011;10082;51.038;6.992;2023-01-29T13:52:35;26.30;;;21.53;;
19842;SDS011;10082;51.038;6.992;2023-01-29T13:55:08;25.00;;;21.30;;
19842;SDS011;10082;51.038;6.992;2023-01-29T13:57:49;24.20;;;20.37;;
19842;SDS011;10082;51.038;6.992;2023-01-29T14:11:59;23.40;;;20.33;;
19842;SDS011;10082;51.038;6.992;2023-01-29T14:17:26;25.10;;;19.93;;
19842;SDS011;10082;51.038;6.992;2023-01-29T14:19:56;23.83;;;20.27;;
19842;SDS011;10082;51.038;6.992;2023-01-29T14:22:35;27.33;;;21.53;;
19842;SDS011;10082;51.038;6.992;2023-01-29T14:25:03;24.90;;;20.17;;
19842;SDS011;10082;51.038;6.992;2023-01-29T14:27:31;23.47;;;19.97;;
19842;SDS011;10082;51.038;6.992;2023-01-29T14:30:02;22.43;;;19.90;;
19842;SDS011;10082;51.038;6.992;2023-01-29T14:32:33;23.67;;;19.90;;
19842;SDS011;10082;51.038;6.992;2023-01-29T14:35:09;24.17;;;20.50;;
19842;SDS011;10082;51.038;6.992;2023-01-29T14:37:48;23.53;;;19.27;;
19842;SDS011;10082;51.038;6.992;2023-01-29T14:40:19;24.13;;;21.50;;
19842;SDS011;10082;51.038;6.992;2023-01-29T14:45:35;23.10;;;20.33;;
19842;SDS011;10082;51.038;6.992;2023-01-29T14:48:08;26.23;;;20.90;;
19842;SDS011;10082;51.038;6.992;2023-01-29T14:51:07;23.67;;;20.33;;
19842;SDS011;10082;51.038;6.992;2023-01-29T14:53:44;23.70;;;19.90;;
19842;SDS011;10082;51.038;6.992;2023-01-29T14:56:20;24.83;;;20.73;;
19842;SDS011;10082;51.038;6.992;2023-01-29T14:58:53;23.40;;;20.30;;
19842;SDS011;10082;51.038;6.992;2023-01-29T15:01:29;23.37;;;19.50;;
19842;SDS011;10082;51.038;6.992;2023-01-29T15:04:02;24.37;;;20.10;;
19842;SDS011;10082;51.038;6.992;2023-01-29T15:06:31;23.07;;;20.57;;
19842;SDS011;10082;51.038;6.992;2023-01-29T15:09:11;24.70;;;20.07;;
19842;SDS011;10082;51.038;6.992;2023-01-29T15:11:43;24.90;;;21.23;;
19842;SDS011;10082;51.038;6.992;2023-01-29T15:14:16;24.30;;;21.60;;